Time;durP1;ratioP1;P1;durP2;ratioP2;P2;SDS_P1;SDS_P2;PMS_P1;PMS_P2;Temp;Humidity;BMP_temperature;BMP_pressure;BME280_temperature;BME280_humidity;BME280_pressure;Samples;Min_cycle;Max_cycle;Signal;HPM_P1;HPM_P2
2021/07/31 00:01:56;;;;;;;7.85;4.13;;;;;;;20.88;62.18;96045.02;127933;1093;34484;-94
2021/07/31 00:04:27;;;;;;;5.50;3.95;;;;;;;20.84;62.00;96046.89;128058;1093;31255;-94
2021/07/31 00:06:59;;;;;;;6.60;3.73;;;;;;;20.83;62.30;96048.00;129889;1091;35296;-94
2021/07/31 00:09:30;;;;;;;4.15;3.38;;;;;;;20.81;62.34;96042.19;130244;1092;32539;-94
2021/07/31 00:12:01;;;;;;;6.68;4.35;;;;;;;20.79;62.30;96045.24;129402;1091;35486;-95
2021/07/31 00:14:33;;;;;;;6.10;4.25;;;;;;;20.77;62.57;96046.74;127692;1093;35421;-95
2021/07/31 00:17:06;;;;;;;6.68;4.70;;;;;;;20.72;62.14;96039.74;127862;1093;31040;-95
2021/07/31 00:19:38;;;;;;;7.65;4.68;;;;;;;20.72;62.34;96031.66;127963;1093;48051;-95
2021/07/31 00:22:09;;;;;;;4.70;3.53;;;;;;;20.72;62.43;96029.74;127999;1093;29876;-95
2021/07/31 00:24:41;;;;;;;4.53;3.63;;;;;;;20.60;62.73;96029.13;128142;1093;32100;-95
2021/07/31 00:27:12;;;;;;;4.98;3.80;;;;;;;20.56;63.09;96026.38;128173;1092;28694;-94
2021/07/31 00:29:44;;;;;;;5.53;4.35;;;;;;;20.59;62.84;96025.66;128149;1093;35182;-96
2021/07/31 00:32:15;;;;;;;7.27;4.93;;;;;;;20.59;62.71;96031.04;127939;1093;33032;-94
2021/07/31 00:34:46;;;;;;;5.23;4.13;;;;;;;20.59;62.76;96028.34;128224;1092;36696;-94
2021/07/31 00:37:18;;;;;;;6.30;3.90;;;;;;;20.61;62.74;96026.07;127688;1093;34282;-95
2021/07/31 00:39:49;;;;;;;4.85;4.18;;;;;;;20.62;62.61;96030.32;127767;1093;38992;-95
2021/07/31 00:42:20;;;;;;;7.08;4.20;;;;;;;20.58;62.66;96026.79;127743;1091;31165;-96
2021/07/31 00:44:52;;;;;;;5.20;4.00;;;;;;;20.58;62.54;96024.09;127674;1092;35398;-95
2021/07/31 00:47:23;;;;;;;6.75;4.28;;;;;;;20.57;63.10;96022.55;127921;1092;33565;-96
2021/07/31 00:49:55;;;;;;;6.25;4.05;;;;;;;20.58;63.02;96029.48;127795;1093;93706;-94
2021/07/31 00:52:27;;;;;;;7.55;4.40;;;;;;;20.56;62.71;96025.59;128191;1093;35503;-95
2021/07/31 00:55:00;;;;;;;6.60;4.35;;;;;;;20.55;62.35;96024.01;128120;1093;31873;-96
2021/07/31 00:57:33;;;;;;;6.58;4.33;;;;;;;20.51;62.22;96013.18;127693;1093;36271;-95
2021/07/31 01:00:06;;;;;;;6.13;4.18;;;;;;;20.48;62.82;96013.89;127994;1093;32238;-94
2021/07/31 01:02:38;;;;;;;6.13;3.85;;;;;;;20.45;63.11;96020.78;127748;1093;35468;-95
2021/07/31 01:05:10;;;;;;;5.80;4.00;;;;;;;20.38;63.10;96017.91;127845;1093;34270;-95
2021/07/31 01:07:42;;;;;;;6.78;4.18;;;;;;;20.36;63.20;96022.88;128132;1093;40457;-95
2021/07/31 01:10:14;;;;;;;5.90;4.05;;;;;;;20.38;63.07;96025.98;128163;1092;34954;-94
2021/07/31 01:12:47;;;;;;;5.28;3.83;;;;;;;20.37;63.24;96024.42;128054;1092;31278;-94
2021/07/31 01:15:19;;;;;;;6.78;4.68;;;;;;;20.35;62.80;96021.31;128005;1093;42839;-95
2021/07/31 01:17:50;;;;;;;7.73;4.80;;;;;;;20.32;62.73;96023.95;127868;1092;33766;-96
2021/07/31 01:20:23;;;;;;;8.98;5.00;;;;;;;20.32;62.64;96023.95;128160;1093;36355;-95
2021/07/31 01:22:54;;;;;;;6.85;3.95;;;;;;;20.29;62.51;96019.28;127885;1093;33270;-95
2021/07/31 01:25:26;;;;;;;7.23;5.13;;;;;;;20.29;62.38;96011.98;128134;1092;38007;-95
2021/07/31 01:27:57;;;;;;;6.83;4.48;;;;;;;20.29;62.34;96013.89;128212;1093;33062;-96
2021/07/31 01:30:29;;;;;;;6.70;4.68;;;;;;;20.28;62.54;96013.11;128190;1093;38614;-94
2021/07/31 01:33:00;;;;;;;7.23;4.95;;;;;;;20.28;62.35;96015.03;128010;1093;40760;-95
2021/07/31 01:35:32;;;;;;;8.50;5.08;;;;;;;20.25;62.64;96019.19;127988;1093;36342;-95
2021/07/31 01:38:03;;;;;;;11.38;4.70;;;;;;;20.25;63.05;96015.72;128089;1093;37237;-95
2021/07/31 01:40:35;;;;;;;7.65;4.90;;;;;;;20.20;63.03;96018.70;128127;1093;50626;-95
2021/07/31 01:43:09;;;;;;;7.30;4.65;;;;;;;20.18;62.85;96010.20;128008;1093;35764;-95
2021/07/31 01:45:41;;;;;;;7.40;4.70;;;;;;;20.18;62.77;96008.30;128083;1093;42865;-94
2021/07/31 01:48:12;;;;;;;6.73;4.70;;;;;;;20.20;62.86;96006.02;127718;1093;53624;-94
2021/07/31 01:50:44;;;;;;;10.65;5.00;;;;;;;20.17;62.58;96006.73;128011;1093;32872;-95
2021/07/31 01:53:16;;;;;;;6.25;4.50;;;;;;;20.18;62.64;95994.05;128140;1093;36153;-94
2021/07/31 01:55:48;;;;;;;5.68;4.38;;;;;;;20.24;62.62;95996.09;128138;1093;34873;-96
2021/07/31 01:58:19;;;;;;;6.50;4.78;;;;;;;20.34;61.95;96002.83;128193;1093;37153;-95
2021/07/31 02:00:53;;;;;;;5.03;4.15;;;;;;;20.44;61.85;95991.52;127976;1093;53946;-95
2021/07/31 02:03:24;;;;;;;5.53;4.20;;;;;;;20.53;61.29;95992.05;128135;1092;38048;-96
2021/07/31 02:05:56;;;;;;;6.90;4.63;;;;;;;20.58;61.31;95997.16;128036;1093;38888;-94
2021/07/31 02:08:27;;;;;;;6.55;3.98;;;;;;;20.63;61.09;95990.70;128157;1093;32953;-95
2021/07/31 02:10:59;;;;;;;8.45;4.63;;;;;;;20.67;61.21;95983.45;128132;1093;32587;-95
2021/07/31 02:13:30;;;;;;;10.95;4.68;;;;;;;20.69;60.96;95984.67;127949;1093;43698;-96
2021/07/31 02:16:01;;;;;;;6.83;4.25;;;;;;;20.71;60.70;95979.70;127871;1093;42142;-95
2021/07/31 02:18:33;;;;;;;7.00;4.30;;;;;;;20.72;60.78;95981.25;128149;1093;35658;-95
2021/07/31 02:21:04;;;;;;;8.23;4.80;;;;;;;20.72;60.67;95983.17;128014;1092;39534;-95
2021/07/31 02:23:36;;;;;;;6.78;4.40;;;;;;;20.73;60.54;95982.81;128046;1093;34701;-94
2021/07/31 02:26:07;;;;;;;6.45;4.15;;;;;;;20.73;60.47;95976.65;128091;1093;42430;-96
2021/07/31 02:28:39;;;;;;;5.80;4.60;;;;;;;20.74;60.06;95984.37;128076;1093;32341;-94
2021/07/31 02:31:12;;;;;;;6.93;4.45;;;;;;;20.77;60.42;95971.31;127989;1093;33853;-95
2021/07/31 02:33:43;;;;;;;5.65;4.43;;;;;;;20.79;60.44;95969.03;128015;1091;31366;-95
2021/07/31 02:36:15;;;;;;;8.53;5.08;;;;;;;20.83;60.17;95969.86;127810;1093;41453;-94
2021/07/31 02:38:46;;;;;;;5.70;4.13;;;;;;;20.86;60.06;95963.78;127846;1093;32417;-95
2021/07/31 02:41:19;;;;;;;6.28;4.55;;;;;;;20.90;59.97;95964.61;127738;1093;36842;-94
2021/07/31 02:43:50;;;;;;;7.17;4.57;;;;;;;20.96;59.89;95963.16;127946;1093;37139;-95
2021/07/31 02:46:22;;;;;;;5.93;4.47;;;;;;;21.03;59.51;95965.98;128034;1093;33407;-94
2021/07/31 02:48:53;;;;;;;5.93;4.50;;;;;;;21.08;59.61;95954.88;127981;1093;38399;-94
2021/07/31 02:51:24;;;;;;;6.48;4.50;;;;;;;21.07;59.27;95947.94;127951;1093;43365;-93
2021/07/31 02:53:56;;;;;;;6.58;4.68;;;;;;;21.09;59.10;95955.66;127875;1093;77272;-95
2021/07/31 02:56:29;;;;;;;6.88;3.90;;;;;;;21.13;59.22;95959.98;128248;1092;41699;-95
2021/07/31 02:59:00;;;;;;;6.93;4.25;;;;;;;21.15;59.16;95955.00;127876;1093;38147;-96
2021/07/31 03:01:34;;;;;;;6.08;4.38;;;;;;;21.16;59.09;95951.17;128157;1093;80483;-96
2021/07/31 03:04:06;;;;;;;6.50;4.58;;;;;;;21.17;58.96;95954.64;127970;1091;44394;-94
2021/07/31 03:06:37;;;;;;;7.00;4.63;;;;;;;21.15;58.88;95946.92;128054;1093;35905;-93
2021/07/31 03:09:09;;;;;;;6.90;4.40;;;;;;;21.15;59.07;95938.05;127990;1093;30883;-95
2021/07/31 03:11:41;;;;;;;7.23;4.50;;;;;;;21.11;59.15;95942.59;127814;1093;31743;-95
2021/07/31 03:14:13;;;;;;;6.58;4.50;;;;;;;21.09;59.38;95940.27;128076;1093;83207;-94
2021/07/31 03:16:44;;;;;;;5.73;4.10;;;;;;;21.05;59.33;95934.05;128307;1093;76551;-94
2021/07/31 03:19:18;;;;;;;6.15;4.60;;;;;;;21.02;59.38;95951.72;128188;1093;41330;-95
2021/07/31 03:21:49;;;;;;;7.10;4.68;;;;;;;20.99;59.40;95957.06;128158;1093;37048;-94
2021/07/31 03:24:20;;;;;;;6.35;4.68;;;;;;;20.94;59.66;95958.13;127948;1093;41391;-94
2021/07/31 03:26:52;;;;;;;6.20;4.90;;;;;;;20.90;59.64;95959.22;128149;1093;39731;-95
2021/07/31 03:29:23;;;;;;;6.25;4.55;;;;;;;20.86;59.96;95955.70;128070;1092;40122;-95
2021/07/31 03:31:55;;;;;;;6.15;4.40;;;;;;;20.83;59.95;95951.81;127965;1093;38076;-96
2021/07/31 03:34:27;;;;;;;8.08;5.05;;;;;;;20.82;60.13;95958.31;128150;1093;42858;-94
2021/07/31 03:36:58;;;;;;;5.53;4.53;;;;;;;20.79;60.39;95947.48;127944;1093;32687;-95
2021/07/31 03:39:30;;;;;;;6.35;4.85;;;;;;;20.78;60.48;95959.39;127976;1093;36359;-95
2021/07/31 03:42:01;;;;;;;7.55;4.43;;;;;;;20.77;60.42;95947.84;128097;1093;38972;-95
2021/07/31 03:44:33;;;;;;;7.38;4.45;;;;;;;20.81;60.67;95958.67;128067;1093;34399;-96
2021/07/31 03:47:04;;;;;;;7.38;4.83;;;;;;;20.86;60.35;95951.09;128047;1093;37664;-94
2021/07/31 03:49:36;;;;;;;6.58;4.75;;;;;;;20.91;60.57;95960.77;128003;1092;41332;-96
2021/07/31 03:52:08;;;;;;;5.80;4.65;;;;;;;20.91;60.64;95952.69;128120;1092;46562;-94
2021/07/31 03:54:40;;;;;;;6.35;4.70;;;;;;;20.90;60.79;95961.91;127977;1093;41031;-95
2021/07/31 03:57:11;;;;;;;8.93;4.60;;;;;;;20.90;60.44;95945.74;128076;1093;51179;-96
2021/07/31 03:59:44;;;;;;;7.45;5.05;;;;;;;20.88;60.69;95945.33;128086;1093;38499;-95
2021/07/31 04:02:15;;;;;;;8.45;4.85;;;;;;;20.87;60.31;95941.86;128226;1093;41858;-95
2021/07/31 04:04:47;;;;;;;6.53;4.53;;;;;;;20.88;60.59;95940.72;128232;1093;49064;-94
2021/07/31 04:07:20;;;;;;;6.23;4.53;;;;;;;20.87;60.70;95941.08;128333;1092;38325;-95
2021/07/31 04:09:51;;;;;;;6.38;4.85;;;;;;;20.84;60.84;95939.89;128158;1093;41246;-95
2021/07/31 04:12:23;;;;;;;8.00;5.03;;;;;;;20.83;60.64;95948.31;127781;1093;36285;-95
2021/07/31 04:14:54;;;;;;;4.85;4.20;;;;;;;20.81;61.10;95948.67;128238;1093;39518;-94
2021/07/31 04:17:26;;;;;;;8.45;4.95;;;;;;;20.80;60.95;95951.73;128155;1093;31729;-95
2021/07/31 04:19:57;;;;;;;7.93;4.43;;;;;;;20.79;61.01;95953.64;127855;1092;50440;-95
2021/07/31 04:22:29;;;;;;;7.20;4.63;;;;;;;20.86;60.98;95961.86;128153;1093;34004;-94
2021/07/31 04:25:03;;;;;;;6.85;5.03;;;;;;;20.94;61.16;95957.35;126248;1093;2064696;-95
2021/07/31 04:27:36;;;;;;;6.63;4.80;;;;;;;21.04;61.25;95962.92;127942;1093;38669;-95
2021/07/31 04:30:11;;;;;;;6.88;5.08;;;;;;;21.15;61.21;95965.78;128302;1093;37280;-95
2021/07/31 04:32:42;;;;;;;7.70;4.55;;;;;;;21.25;60.64;95962.48;128099;1092;32909;-94
2021/07/31 04:35:14;;;;;;;7.13;4.85;;;;;;;21.30;60.39;95961.41;128209;1093;39069;-95
2021/07/31 04:37:45;;;;;;;6.93;4.60;;;;;;;21.34;60.56;95967.63;128323;1092;38863;-94
2021/07/31 04:40:18;;;;;;;8.65;5.05;;;;;;;21.37;60.34;95960.73;128196;1093;41865;-96
2021/07/31 04:42:50;;;;;;;7.43;4.83;;;;;;;21.40;60.13;95957.33;128153;1093;50887;-96
2021/07/31 04:45:22;;;;;;;6.63;4.68;;;;;;;21.47;60.23;95950.09;128069;1092;44440;-94
2021/07/31 04:47:54;;;;;;;7.23;4.75;;;;;;;21.54;60.09;95952.91;128087;1093;39734;-95
2021/07/31 04:50:26;;;;;;;6.10;4.50;;;;;;;21.55;59.92;95945.59;128008;1093;37283;-95
2021/07/31 04:52:57;;;;;;;6.68;4.48;;;;;;;21.60;59.87;95956.83;128072;1093;36279;-94
2021/07/31 04:55:29;;;;;;;6.60;4.90;;;;;;;21.70;60.09;95958.13;127971;1093;39195;-95
2021/07/31 04:58:00;;;;;;;6.73;4.78;;;;;;;21.86;60.16;95950.62;127981;1093;44321;-94
2021/07/31 05:00:32;;;;;;;6.10;4.58;;;;;;;22.19;59.80;95959.89;128001;1093;37505;-95
2021/07/31 05:03:08;;;;;;;7.45;5.05;;;;;;;22.62;59.58;95949.53;127970;1093;37709;-94
2021/07/31 05:05:41;;;;;;;6.63;5.00;;;;;;;23.00;58.35;95951.05;128076;1093;36218;-94
2021/07/31 05:08:13;;;;;;;6.73;5.10;;;;;;;22.89;57.93;95950.19;127996;1093;40311;-95
2021/07/31 05:10:49;;;;;;;8.35;4.95;;;;;;;22.79;57.79;95957.02;128169;1093;46562;-95
2021/07/31 05:13:21;;;;;;;11.38;5.15;;;;;;;22.70;58.05;95964.67;127990;1093;32668;-94
2021/07/31 05:15:52;;;;;;;5.90;4.80;;;;;;;22.69;57.99;95957.72;127952;1093;63536;-95
2021/07/31 05:18:25;;;;;;;6.25;4.85;;;;;;;22.69;57.85;95953.09;128214;1093;39501;-94
2021/07/31 05:20:58;;;;;;;6.23;4.48;;;;;;;22.71;57.87;95956.19;128189;1093;35807;-94
2021/07/31 05:23:40;;;;;;;6.00;5.05;;;;;;;22.78;58.09;95955.47;127885;1093;33428;-94
2021/07/31 05:26:13;;;;;;;9.10;4.73;;;;;;;22.76;57.48;95963.17;128082;1093;31630;-94
2021/07/31 05:28:45;;;;;;;6.98;4.65;;;;;;;22.67;57.78;95960.80;128128;1093;32053;-94
2021/07/31 05:31:23;;;;;;;5.65;4.58;;;;;;;22.58;58.03;95952.20;128112;1093;36395;-94
2021/07/31 05:33:54;;;;;;;6.55;4.80;;;;;;;22.55;58.32;95957.58;127984;1093;30686;-94
2021/07/31 05:36:25;;;;;;;6.93;4.93;;;;;;;22.53;58.35;95955.25;127946;1093;37774;-93
2021/07/31 05:38:57;;;;;;;8.08;5.10;;;;;;;22.49;58.32;95966.00;128138;1093;30509;-94
2021/07/31 05:41:29;;;;;;;7.83;4.70;;;;;;;22.49;58.36;95955.20;128067;1093;31958;-95
2021/07/31 05:44:02;;;;;;;6.50;4.75;;;;;;;22.50;58.40;95962.15;128165;1093;40070;-94
2021/07/31 05:46:33;;;;;;;7.68;5.28;;;;;;;22.55;58.83;95957.58;128091;1093;40905;-95
2021/07/31 05:49:05;;;;;;;7.28;5.00;;;;;;;22.61;59.37;95958.78;127981;1093;35728;-93
2021/07/31 05:51:38;;;;;;;11.20;5.25;;;;;;;22.72;59.54;95965.07;127960;1093;35608;-94
2021/07/31 05:54:09;;;;;;;7.78;5.05;;;;;;;22.74;59.33;95965.47;127943;1093;27898;-94
2021/07/31 05:56:42;;;;;;;6.63;5.03;;;;;;;22.68;59.88;95975.08;128263;1093;38172;-95
2021/07/31 05:59:14;;;;;;;8.15;4.90;;;;;;;22.56;59.54;95969.94;128228;1093;34269;-94
2021/07/31 06:01:45;;;;;;;7.48;4.78;;;;;;;22.53;60.29;95974.16;128060;1093;37664;-94
2021/07/31 06:04:18;;;;;;;5.98;4.85;;;;;;;22.46;59.87;95977.55;128174;1091;33911;-94
2021/07/31 06:06:52;;;;;;;7.25;5.50;;;;;;;22.50;60.51;95981.06;128215;1093;35993;-94
2021/07/31 06:09:27;;;;;;;9.23;5.23;;;;;;;22.48;60.17;95986.06;129601;1092;39717;-93
2021/07/31 06:12:01;;;;;;;6.75;5.38;;;;;;;22.30;59.94;96006.70;129974;1092;40126;-93
2021/07/31 06:14:40;;;;;;;6.10;4.78;;;;;;;22.10;59.30;95998.00;129406;1093;52315;-95
2021/07/31 06:17:14;;;;;;;9.15;5.20;;;;;;;22.05;59.81;96013.69;128274;1093;39136;-95
2021/07/31 06:20:17;;;;;;;7.38;5.08;;;;;;;21.97;59.95;96009.36;128153;1092;78777;-95
2021/07/31 06:22:54;;;;;;;7.10;5.43;;;;;;;21.89;59.74;96013.88;126266;1093;2249055;-95
2021/07/31 06:25:35;;;;;;;10.38;5.50;;;;;;;21.83;60.71;96021.52;128217;1092;45959;-95
2021/07/31 06:28:13;;;;;;;9.98;5.53;;;;;;;21.84;60.89;96028.47;127798;1092;38242;-94
2021/07/31 06:30:50;;;;;;;7.45;5.55;;;;;;;21.67;60.66;96034.38;128322;1093;41438;-93
2021/07/31 06:33:25;;;;;;;8.55;5.90;;;;;;;21.53;61.23;96043.03;128165;1093;40921;-93
2021/07/31 06:36:09;;;;;;;6.40;5.00;;;;;;;21.42;62.09;96039.41;128206;1093;32536;-95
2021/07/31 06:38:47;;;;;;;6.18;5.03;;;;;;;21.33;62.45;96053.14;128265;1093;36673;-95
2021/07/31 06:41:36;;;;;;;9.18;5.68;;;;;;;21.28;62.45;96061.54;128341;1093;78387;-96
2021/07/31 06:47:33;;;;;;;7.27;5.43;;;;;;;21.09;63.70;96074.25;127002;1093;1496087;-95
2021/07/31 06:50:18;;;;;;;9.30;6.37;;;;;;;20.95;64.50;96086.33;126530;1093;2075871;-94
2021/07/31 06:52:53;;;;;;;6.90;5.38;;;;;;;20.80;65.22;96100.68;127138;1093;2231377;-94
2021/07/31 06:55:31;;;;;;;8.95;5.68;;;;;;;20.66;65.33;96117.34;127020;1092;1406055;-96
2021/07/31 07:03:33;;;;;;;5.98;4.90;;;;;;;20.28;68.14;96134.25;120673;1092;2604678;-95
2021/07/31 07:06:46;;;;;;;9.27;4.80;;;;;;;20.11;68.69;96150.77;120021;1094;2284464;-96
2021/07/31 07:09:26;;;;;;;9.08;5.25;;;;;;;19.91;70.32;96159.92;114968;1093;5318395;-96
2021/07/31 07:12:28;;;;;;;8.07;5.03;;;;;;;19.73;70.55;96165.67;120174;1093;2673847;-95
2021/07/31 07:15:16;;;;;;;7.88;5.63;;;;;;;19.64;71.66;96180.41;120945;1094;4694847;-96
2021/07/31 07:17:57;;;;;;;8.10;4.43;;;;;;;19.54;73.38;96197.80;123633;1093;2488502;-96
2021/07/31 07:20:34;;;;;;;7.88;5.35;;;;;;;19.34;73.86;96204.98;116705;1093;5240900;-96
2021/07/31 07:23:13;;;;;;;7.23;4.90;;;;;;;19.14;76.56;96206.77;123245;1093;2312206;-96
2021/07/31 07:25:47;;;;;;;8.50;5.73;;;;;;;18.90;77.24;96218.38;127624;1093;186935;-94
2021/07/31 07:28:18;;;;;;;7.65;4.88;;;;;;;18.85;77.27;96199.80;127589;1093;115011;-96
2021/07/31 07:30:50;;;;;;;7.27;4.87;;;;;;;18.83;78.31;96215.48;127782;1093;106998;-96
2021/07/31 07:33:22;;;;;;;7.23;5.00;;;;;;;18.79;78.99;96214.61;127605;1093;230663;-95
2021/07/31 07:35:54;;;;;;;6.53;4.60;;;;;;;18.71;80.43;96194.03;127382;1093;316958;-96
2021/07/31 07:38:26;;;;;;;6.10;4.45;;;;;;;18.64;80.81;96215.31;127784;1093;183413;-95
2021/07/31 07:41:01;;;;;;;6.93;4.90;;;;;;;18.60;81.65;96212.50;127725;1093;84050;-95
2021/07/31 07:43:33;;;;;;;9.55;6.00;;;;;;;18.55;82.24;96195.83;127804;1093;106989;-96
2021/07/31 07:46:06;;;;;;;8.33;4.90;;;;;;;18.51;82.67;96208.38;127762;1096;107696;-95
2021/07/31 07:48:38;;;;;;;7.38;4.93;;;;;;;18.52;82.67;96207.25;128152;1095;163544;-96
2021/07/31 07:51:10;;;;;;;8.45;5.68;;;;;;;18.54;82.33;96199.64;127647;1093;148228;-96
2021/07/31 07:53:41;;;;;;;6.98;5.23;;;;;;;18.56;82.43;96192.02;127570;1093;138966;-95
2021/07/31 07:56:14;;;;;;;7.10;4.45;;;;;;;18.57;82.07;96186.31;126695;1093;227952;-96
2021/07/31 07:58:48;;;;;;;7.33;4.80;;;;;;;18.64;82.27;96191.16;126032;1093;1204499;-96
2021/07/31 08:01:20;;;;;;;8.48;5.48;;;;;;;18.63;82.57;96193.05;127103;1096;214168;-96
2021/07/31 08:03:53;;;;;;;6.38;4.55;;;;;;;18.65;82.24;96190.03;124461;1093;1849879;-96
2021/07/31 08:06:37;;;;;;;6.23;4.23;;;;;;;18.68;81.96;96184.75;126838;1096;245209;-96
2021/07/31 08:09:15;;;;;;;6.90;4.83;;;;;;;18.77;81.71;96176.57;126412;1096;258518;-96
2021/07/31 08:11:49;;;;;;;6.67;4.50;;;;;;;18.88;81.68;96179.56;126890;1095;274661;-96
2021/07/31 08:14:28;;;;;;;6.70;4.53;;;;;;;18.99;81.18;96188.67;118265;1096;5113570;-96
2021/07/31 08:17:00;;;;;;;8.35;4.60;;;;;;;19.10;80.88;96191.66;122236;1096;2774968;-96
2021/07/31 08:19:38;;;;;;;6.50;4.70;;;;;;;19.14;80.63;96189.83;125269;1093;1742898;-96
2021/07/31 08:22:11;;;;;;;6.50;4.77;;;;;;;19.13;80.77;96196.34;124994;1097;1892073;-96
2021/07/31 08:24:47;;;;;;;8.10;5.10;;;;;;;19.07;80.88;96203.88;124733;1096;2017793;-96
2021/07/31 08:27:21;;;;;;;6.38;4.98;;;;;;;19.06;81.03;96191.56;126889;1093;270478;-96
2021/07/31 08:29:55;;;;;;;7.13;5.30;;;;;;;19.13;80.92;96191.74;125243;1096;1507505;-96
2021/07/31 08:32:37;;;;;;;7.22;5.72;;;;;;;19.18;80.84;96196.89;121594;1096;2664116;-96
2021/07/31 08:35:16;;;;;;;6.30;4.83;;;;;;;19.24;80.73;96181.28;123705;1095;2025356;-96
2021/07/31 08:38:02;;;;;;;8.38;5.90;;;;;;;19.22;80.75;96175.47;124450;1096;2091159;-96
2021/07/31 08:40:42;;;;;;;6.23;4.90;;;;;;;19.28;80.98;96161.45;123697;1096;1991080;-96
2021/07/31 08:43:15;;;;;;;7.65;5.05;;;;;;;19.38;81.25;96141.33;127170;1095;226471;-95
2021/07/31 08:46:13;;;;;;;7.55;5.53;;;;;;;19.42;81.07;96147.57;125959;1092;1754434;-95
2021/07/31 08:49:00;;;;;;;6.90;4.93;;;;;;;19.50;80.77;96143.94;119136;1093;3600700;-96
2021/07/31 08:51:49;;;;;;;6.95;4.75;;;;;;;19.54;81.20;96154.78;117041;1096;4806702;-95
2021/07/31 08:54:43;;;;;;;5.68;4.33;;;;;;;19.59;80.49;96138.44;120347;1095;2619633;-96
2021/07/31 08:57:56;;;;;;;8.00;5.30;;;;;;;19.68;80.52;96135.55;118669;1096;2656074;-96
2021/07/31 09:00:46;;;;;;;8.03;4.90;;;;;;;19.73;80.98;96144.16;123909;1096;1987424;-96
2021/07/31 09:03:34;;;;;;;;;;;;;;;19.71;81.39;96142.95;120718;1096;2756842;-95
2021/07/31 09:06:40;;;;;;;5.85;4.93;;;;;;;19.65;81.69;96128.97;126897;1096;236774;-96
2021/07/31 09:12:33;;;;;;;5.70;4.18;;;;;;;19.68;81.09;96109.44;112966;1093;5155985;-96
2021/07/31 09:15:11;;;;;;;5.83;4.60;;;;;;;19.81;81.08;96118.19;122141;1093;2619035;-96
2021/07/31 09:17:58;;;;;;;7.53;5.33;;;;;;;20.02;81.29;96125.98;126770;1093;282410;-96
2021/07/31 09:20:45;;;;;;;5.75;4.35;;;;;;;20.14;81.01;96131.25;122011;1093;2379881;-96
2021/07/31 09:24:17;;;;;;;;;;;;;;;;;;;;;
2021/07/31 09:30:19;;;;;;;6.60;4.93;;;;;;;20.66;79.91;96138.90;120080;1096;5606711;-95
2021/07/31 09:33:38;;;;;;;;;;;;;;;;;;;;;
2021/07/31 10:05:03;;;;;;;5.93;5.00;;;;;;;20.05;81.73;96144.88;121161;1093;3347285;-96
2021/07/31 10:19:38;;;;;;;6.84;4.57;;;;;;;20.48;81.74;96115.44;121703;1094;5185472;-96
2021/07/31 10:22:13;;;;;;;5.63;4.40;;;;;;;20.64;81.48;96116.93;127489;1093;88768;-90
2021/07/31 10:25:08;;;;;;;5.13;4.05;;;;;;;20.76;81.44;96113.31;127839;1093;24472;-90
2021/07/31 10:27:40;;;;;;;7.15;4.55;;;;;;;20.78;81.27;96113.73;129506;1095;25908;-89
2021/07/31 10:30:29;;;;;;;5.80;4.43;;;;;;;20.77;80.62;96103.31;128186;1093;27940;-88
2021/07/31 10:33:01;;;;;;;6.38;4.45;;;;;;;20.79;79.91;96104.52;127900;1092;26669;-89
2021/07/31 10:35:39;;;;;;;6.13;4.33;;;;;;;20.92;80.55;96097.06;128078;1093;25007;-90
2021/07/31 10:38:12;;;;;;;4.75;3.90;;;;;;;21.03;79.77;96100.73;127947;1092;26095;-88
2021/07/31 10:40:48;;;;;;;5.55;4.38;;;;;;;21.12;79.48;96093.20;127714;1093;25809;-89
2021/07/31 10:43:20;;;;;;;5.08;4.03;;;;;;;21.21;79.35;96087.56;127663;1093;25455;-88
2021/07/31 10:45:51;;;;;;;6.20;4.45;;;;;;;21.25;79.18;96080.33;127685;1093;30789;-88
2021/07/31 10:48:40;;;;;;;5.78;4.23;;;;;;;21.26;78.65;96080.00;127791;1093;24950;-89
2021/07/31 10:51:42;;;;;;;5.50;4.37;;;;;;;21.29;78.60;96092.75;127682;1092;27611;-88
2021/07/31 10:54:14;;;;;;;7.65;4.58;;;;;;;21.22;78.27;96081.80;127870;1093;26392;-89
2021/07/31 10:56:59;;;;;;;6.93;4.53;;;;;;;21.22;77.85;96078.33;127849;1093;23306;-89
2021/07/31 10:59:31;;;;;;;6.80;3.65;;;;;;;21.25;78.09;96081.11;127614;1093;28218;-93
2021/07/31 11:02:37;;;;;;;6.50;4.33;;;;;;;21.26;78.02;96074.61;127688;1091;29300;-91
2021/07/31 11:05:09;;;;;;;6.13;4.45;;;;;;;21.34;78.00;96076.27;127804;1093;29620;-93
2021/07/31 11:08:05;;;;;;;6.90;4.45;;;;;;;21.31;77.72;96070.82;127690;1091;34531;-93
2021/07/31 11:10:43;;;;;;;5.03;4.03;;;;;;;21.29;77.66;96070.41;127646;1093;27621;-90
2021/07/31 11:13:35;;;;;;;5.38;4.18;;;;;;;21.36;77.35;96069.73;127408;1093;38284;-91
2021/07/31 11:16:20;;;;;;;7.80;4.60;;;;;;;21.47;77.46;96067.98;127721;1092;30997;-88
2021/07/31 11:18:54;;;;;;;5.38;3.68;;;;;;;21.59;77.80;96065.88;127583;1092;27263;-90
2021/07/31 11:21:27;;;;;;;5.63;3.48;;;;;;;21.70;76.81;96070.66;127618;1092;26392;-90
2021/07/31 11:24:01;;;;;;;4.98;3.95;;;;;;;21.74;77.00;96069.56;127405;1093;44615;-90
2021/07/31 11:26:42;;;;;;;5.43;3.55;;;;;;;21.81;77.34;96064.25;127649;1093;58233;-91
2021/07/31 11:29:19;;;;;;;5.63;3.45;;;;;;;21.85;76.68;96077.82;127982;1093;27420;-90
2021/07/31 11:32:03;;;;;;;4.43;3.63;;;;;;;21.93;76.07;96069.45;127732;1092;26142;-90
2021/07/31 11:34:40;;;;;;;5.05;3.20;;;;;;;22.04;75.29;96058.02;127724;1093;30368;-90
2021/07/31 11:37:12;;;;;;;5.00;3.40;;;;;;;22.21;75.28;96057.50;127691;1092;30567;-89
2021/07/31 11:39:45;;;;;;;5.53;3.88;;;;;;;22.47;75.05;96062.06;127400;1093;34396;-90
2021/07/31 11:42:25;;;;;;;4.05;3.00;;;;;;;22.79;73.89;96057.02;127817;1093;60064;-89
2021/07/31 11:45:05;;;;;;;3.98;3.23;;;;;;;23.02;73.42;96056.89;127716;1093;29238;-89
2021/07/31 11:47:37;;;;;;;3.70;2.60;;;;;;;23.34;73.04;96062.58;127691;1093;26153;-88
2021/07/31 11:50:11;;;;;;;4.38;2.90;;;;;;;23.71;72.80;96048.98;127598;1093;26150;-88
2021/07/31 11:52:42;;;;;;;5.88;3.95;;;;;;;23.78;72.12;96053.66;127588;1093;25004;-87
2021/07/31 11:55:26;;;;;;;5.73;3.70;;;;;;;23.67;72.00;96050.90;127552;1093;23683;-88
2021/07/31 11:57:58;;;;;;;5.20;3.48;;;;;;;23.58;71.88;96051.21;127964;1093;31192;-89
2021/07/31 12:00:29;;;;;;;5.13;3.70;;;;;;;23.59;71.76;96044.64;127878;1092;24669;-85
2021/07/31 12:03:01;;;;;;;4.53;3.10;;;;;;;23.54;70.25;96050.39;128593;1092;43134;-95
2021/07/31 12:05:41;;;;;;;4.55;3.08;;;;;;;23.43;70.06;96038.70;129514;1093;35305;-96
2021/07/31 12:08:13;;;;;;;3.98;2.83;;;;;;;23.59;71.02;96036.52;129488;1092;35744;-95
2021/07/31 12:10:51;;;;;;;6.33;3.25;;;;;;;23.85;71.49;96042.88;128087;1093;31769;-96
2021/07/31 12:13:33;;;;;;;3.37;2.67;;;;;;;24.03;70.41;96054.58;128295;1093;38990;-96
2021/07/31 12:16:05;;;;;;;4.10;2.20;;;;;;;23.95;68.73;96051.08;128241;1092;32477;-96
2021/07/31 12:18:53;;;;;;;4.13;2.85;;;;;;;24.06;68.83;96042.98;128130;1093;36862;-95
2021/07/31 12:21:29;;;;;;;2.65;2.03;;;;;;;24.09;67.19;96038.77;128035;1093;36531;-95
2021/07/31 12:24:01;;;;;;;3.28;2.13;;;;;;;24.25;68.30;96031.88;128053;1092;42856;-95
2021/07/31 12:26:34;;;;;;;2.90;2.18;;;;;;;24.30;67.25;96029.98;128060;1093;39415;-95
2021/07/31 12:29:06;;;;;;;4.15;2.40;;;;;;;24.22;66.54;96032.64;127965;1093;42559;-96
2021/07/31 12:31:37;;;;;;;2.80;2.23;;;;;;;24.25;67.03;96025.69;128028;1093;43107;-94
2021/07/31 12:34:13;;;;;;;3.50;2.50;;;;;;;24.46;67.04;96033.13;128031;1093;46894;-95
2021/07/31 12:36:56;;;;;;;2.35;2.03;;;;;;;24.65;64.66;96035.53;127990;1092;39693;-95
2021/07/31 12:39:28;;;;;;;4.53;2.08;;;;;;;24.76;64.86;96030.12;127885;1092;66365;-95
2021/07/31 12:41:59;;;;;;;2.28;2.00;;;;;;;24.82;63.06;96031.31;127897;1093;35193;-95
2021/07/31 12:44:31;;;;;;;2.20;2.00;;;;;;;24.81;63.09;96035.19;127886;1093;82647;-95
2021/07/31 12:47:03;;;;;;;3.38;2.50;;;;;;;24.85;63.76;96033.24;127893;1092;33647;-96
2021/07/31 12:49:35;;;;;;;3.53;1.93;;;;;;;24.93;63.19;96031.34;127831;1093;31240;-95
2021/07/31 12:52:07;;;;;;;2.25;1.85;;;;;;;24.87;62.30;96031.70;127866;1093;42314;-94
2021/07/31 12:54:39;;;;;;;3.05;2.13;;;;;;;24.81;62.21;96033.25;127864;1093;32464;-95
2021/07/31 12:57:10;;;;;;;2.43;1.93;;;;;;;24.78;62.06;96031.31;127821;1094;33722;-94
2021/07/31 12:59:42;;;;;;;2.73;2.30;;;;;;;24.68;61.75;96028.56;127922;1093;29922;-96